createdAt,value
2022-08-31T00:01:52.371Z,12.50
2022-08-31T00:04:20.336Z,8.57
2022-08-31T00:06:51.405Z,8.43
2022-08-31T00:09:20.847Z,7.03
2022-08-31T00:11:47.499Z,6.55
2022-08-31T00:14:14.499Z,7.30
2022-08-31T00:16:42.850Z,9.07
2022-08-31T00:19:10.120Z,7.78
2022-08-31T00:21:39.091Z,6.30
2022-08-31T00:24:05.995Z,10.13
2022-08-31T00:26:32.656Z,7.00
2022-08-31T00:28:59.318Z,7.80
2022-08-31T00:31:25.947Z,8.02
2022-08-31T00:33:52.821Z,6.43
2022-08-31T00:36:24.643Z,6.63
2022-08-31T00:38:52.018Z,5.97
2022-08-31T00:41:21.679Z,7.43
2022-08-31T00:43:49.789Z,8.32
2022-08-31T00:46:22.824Z,6.97
2022-08-31T00:49:09.646Z,6.50
2022-08-31T00:51:39.928Z,6.25
2022-08-31T00:54:08.803Z,7.55
2022-08-31T00:56:36.100Z,6.18
2022-08-31T00:59:03.039Z,6.05
2022-08-31T01:01:30.914Z,8.13
2022-08-31T01:03:58.681Z,9.57
2022-08-31T01:06:25.673Z,11.55
2022-08-31T01:08:54.476Z,10.18
2022-08-31T01:11:21.493Z,12.57
2022-08-31T01:13:48.189Z,8.90
2022-08-31T01:16:20.076Z,9.57
2022-08-31T01:18:47.461Z,10.45
2022-08-31T01:21:26.312Z,8.80
2022-08-31T01:23:55.629Z,10.60
2022-08-31T01:26:24.763Z,11.32
2022-08-31T01:28:53.246Z,9.68
2022-08-31T01:31:27.364Z,10.85
2022-08-31T01:33:54.241Z,10.50
2022-08-31T01:36:22.241Z,9.45
2022-08-31T01:38:52.773Z,11.52
2022-08-31T01:41:20.166Z,12.00
2022-08-31T01:43:46.742Z,13.65
2022-08-31T01:46:14.249Z,10.10
2022-08-31T01:48:42.898Z,12.40
2022-08-31T01:51:12.364Z,12.77
2022-08-31T01:53:39.769Z,17.42
2022-08-31T01:56:17.919Z,15.05
2022-08-31T01:58:45.039Z,13.07
2022-08-31T02:01:33.634Z,10.65
2022-08-31T02:03:58.862Z,11.63
2022-08-31T02:06:25.645Z,11.35
2022-08-31T02:08:52.706Z,9.13
2022-08-31T02:11:19.378Z,11.00
2022-08-31T02:13:46.054Z,11.10
2022-08-31T02:16:12.771Z,13.95
2022-08-31T02:18:39.406Z,10.52
2022-08-31T02:21:06.189Z,11.18
2022-08-31T02:23:33.059Z,13.20
2022-08-31T02:26:00.088Z,16.52
2022-08-31T02:28:26.828Z,12.52
2022-08-31T02:30:53.390Z,13.20
2022-08-31T02:33:20.163Z,11.88
2022-08-31T02:35:46.785Z,13.93
2022-08-31T02:38:18.719Z,15.15
2022-08-31T02:40:45.808Z,12.70
2022-08-31T02:43:12.893Z,12.25
2022-08-31T02:45:51.138Z,10.60
2022-08-31T02:48:20.565Z,13.30
2022-08-31T02:50:49.115Z,10.55
2022-08-31T02:53:17.554Z,13.25
2022-08-31T02:55:44.521Z,11.40
2022-08-31T02:58:12.304Z,9.52
2022-08-31T03:00:40.551Z,10.20
2022-08-31T03:03:07.184Z,13.45
2022-08-31T03:05:33.866Z,10.85
2022-08-31T03:08:00.467Z,12.85
2022-08-31T03:10:27.102Z,12.90
2022-08-31T03:12:54.038Z,13.35
2022-08-31T03:15:22.622Z,11.88
2022-08-31T03:17:49.263Z,12.38
2022-08-31T03:20:16.714Z,17.05
2022-08-31T03:22:45.650Z,16.15
2022-08-31T03:25:12.787Z,12.70
2022-08-31T03:27:39.646Z,16.38
2022-08-31T03:30:09.506Z,17.83
2022-08-31T03:32:36.182Z,15.57
2022-08-31T03:35:04.271Z,12.65
2022-08-31T03:37:30.894Z,12.88
2022-08-31T03:39:57.860Z,13.65
2022-08-31T03:42:25.196Z,11.63
2022-08-31T03:44:52.427Z,13.20
2022-08-31T03:47:19.563Z,12.20
2022-08-31T03:49:46.195Z,12.85
2022-08-31T03:52:12.970Z,17.38
2022-08-31T03:54:39.751Z,15.82
2022-08-31T03:57:06.702Z,10.80
2022-08-31T03:59:33.338Z,12.80
2022-08-31T04:02:00.007Z,13.85
2022-08-31T04:04:26.798Z,13.70
2022-08-31T04:06:53.394Z,12.35
2022-08-31T04:09:20.135Z,10.38
2022-08-31T04:11:46.906Z,10.40
2022-08-31T04:14:15.430Z,11.27
2022-08-31T04:16:43.827Z,9.88
2022-08-31T04:19:11.623Z,14.90
2022-08-31T04:21:38.666Z,10.77
2022-08-31T04:24:07.726Z,8.73
2022-08-31T04:26:37.514Z,9.38
2022-08-31T04:29:07.646Z,11.85
2022-08-31T04:31:37.414Z,9.98
2022-08-31T04:34:05.203Z,11.98
2022-08-31T04:36:31.960Z,16.15
2022-08-31T04:39:00.448Z,8.10
2022-08-31T04:41:29.041Z,9.50
2022-08-31T04:43:58.143Z,8.43
2022-08-31T04:46:25.044Z,11.90
2022-08-31T04:48:51.678Z,9.40
2022-08-31T04:51:23.023Z,7.90
2022-08-31T04:53:50.418Z,8.20
2022-08-31T04:56:19.719Z,8.77
2022-08-31T04:58:54.852Z,10.63
2022-08-31T05:01:24.429Z,12.07
2022-08-31T05:03:53.297Z,7.40
2022-08-31T05:06:22.293Z,10.32
2022-08-31T05:08:53.641Z,10.07
2022-08-31T05:11:24.827Z,10.32
2022-08-31T05:13:52.994Z,11.73
2022-08-31T05:16:20.380Z,10.27
2022-08-31T05:18:48.504Z,12.13
2022-08-31T05:21:25.479Z,11.57
2022-08-31T05:23:52.185Z,11.85
2022-08-31T05:26:26.489Z,10.93
2022-08-31T05:28:53.775Z,12.57
2022-08-31T05:31:21.210Z,19.38
2022-08-31T05:33:47.856Z,16.38
2022-08-31T05:36:14.743Z,11.57
2022-08-31T05:38:41.507Z,13.98
2022-08-31T05:41:10.151Z,10.93
2022-08-31T05:43:38.215Z,7.65
2022-08-31T05:46:10.535Z,8.23
2022-08-31T05:48:37.958Z,13.95
2022-08-31T05:51:06.992Z,11.45
2022-08-31T05:53:34.616Z,10.68
2022-08-31T05:56:07.222Z,10.10
2022-08-31T05:58:34.186Z,9.80
2022-08-31T06:01:01.483Z,10.60
2022-08-31T06:03:29.249Z,12.98
2022-08-31T06:05:55.998Z,14.23
2022-08-31T06:08:27.587Z,16.75
2022-08-31T06:11:00.826Z,14.25
2022-08-31T06:13:27.458Z,12.45
2022-08-31T06:15:54.761Z,19.75
2022-08-31T06:18:21.555Z,12.65
2022-08-31T06:20:49.534Z,12.70
2022-08-31T06:23:19.831Z,9.15
2022-08-31T06:25:46.596Z,13.15
2022-08-31T06:28:14.981Z,17.70
2022-08-31T06:30:54.756Z,20.08
2022-08-31T06:33:23.052Z,28.23
2022-08-31T06:35:49.625Z,24.95
2022-08-31T06:38:16.201Z,25.05
2022-08-31T06:40:42.897Z,35.05
2022-08-31T06:43:09.576Z,35.30
2022-08-31T06:45:36.198Z,22.63
2022-08-31T06:48:03.505Z,18.05
2022-08-31T06:50:30.196Z,19.50
2022-08-31T06:52:57.344Z,22.48
2022-08-31T06:55:24.578Z,20.77
2022-08-31T06:57:51.219Z,26.63
2022-08-31T07:00:17.940Z,13.38
2022-08-31T07:02:44.621Z,8.20
2022-08-31T07:05:19.906Z,6.97
2022-08-31T07:07:51.481Z,8.63
2022-08-31T07:10:19.485Z,6.93
2022-08-31T07:12:46.172Z,7.63
2022-08-31T07:15:12.813Z,10.40
2022-08-31T07:17:39.528Z,6.55
2022-08-31T07:20:06.699Z,5.45
2022-08-31T07:22:33.335Z,7.18
2022-08-31T07:24:59.988Z,6.38
2022-08-31T07:27:26.673Z,5.75
2022-08-31T07:29:53.322Z,4.65
2022-08-31T07:32:19.985Z,5.25
2022-08-31T07:34:47.953Z,5.18
2022-08-31T07:37:34.752Z,6.20
2022-08-31T07:40:21.173Z,7.22
2022-08-31T07:42:48.006Z,7.43
2022-08-31T07:45:29.235Z,7.03
2022-08-31T07:48:00.574Z,4.75
2022-08-31T07:50:27.543Z,6.57
2022-08-31T07:52:55.735Z,7.80
2022-08-31T07:55:24.884Z,5.95
2022-08-31T07:57:53.905Z,4.47
2022-08-31T08:00:24.447Z,3.97
2022-08-31T08:02:54.048Z,4.45
2022-08-31T08:05:27.644Z,4.38
2022-08-31T08:07:57.481Z,5.85
2022-08-31T08:10:25.426Z,5.88
2022-08-31T08:12:57.263Z,6.55
2022-08-31T08:15:26.211Z,6.17
2022-08-31T08:17:52.959Z,8.07
2022-08-31T08:20:21.705Z,3.25
2022-08-31T08:23:01.329Z,4.85
2022-08-31T08:25:28.117Z,4.45
2022-08-31T08:27:55.528Z,5.70
2022-08-31T08:30:22.374Z,3.97
2022-08-31T08:32:49.075Z,4.05
2022-08-31T08:35:16.599Z,5.78
2022-08-31T08:37:58.349Z,3.85
2022-08-31T08:40:37.333Z,5.35
2022-08-31T08:43:06.126Z,3.75
2022-08-31T08:45:33.429Z,2.97
2022-08-31T08:48:00.391Z,8.23
2022-08-31T08:50:28.290Z,3.53
2022-08-31T08:52:57.515Z,4.60
2022-08-31T08:55:40.389Z,5.15
2022-08-31T08:58:10.428Z,4.55
2022-08-31T09:00:46.495Z,3.55
2022-08-31T09:03:21.608Z,7.65
2022-08-31T09:06:08.015Z,5.13
2022-08-31T09:09:08.103Z,3.55
2022-08-31T09:11:49.539Z,4.22
2022-08-31T09:14:39.393Z,5.85
2022-08-31T09:17:18.198Z,4.85
2022-08-31T09:20:01.610Z,3.88
2022-08-31T09:22:30.296Z,3.80
2022-08-31T09:24:59.621Z,3.97
2022-08-31T09:27:46.962Z,4.78
2022-08-31T09:30:34.678Z,3.92
2022-08-31T09:33:01.368Z,4.13
2022-08-31T09:35:40.431Z,3.60
2022-08-31T09:38:12.576Z,4.32
2022-08-31T09:40:42.513Z,6.43
2022-08-31T09:43:22.804Z,4.45
2022-08-31T09:45:58.292Z,4.57
2022-08-31T09:48:48.440Z,3.05
2022-08-31T09:51:22.856Z,2.50
2022-08-31T09:54:09.937Z,3.70
2022-08-31T09:56:56.799Z,4.03
2022-08-31T09:59:40.258Z,3.08
2022-08-31T10:02:31.826Z,6.07
2022-08-31T10:05:06.399Z,2.47
2022-08-31T10:10:28.077Z,5.07
2022-08-31T10:13:05.306Z,4.20
2022-08-31T10:15:32.909Z,4.97
2022-08-31T10:18:13.843Z,2.83
2022-08-31T10:20:50.795Z,3.95
2022-08-31T10:23:34.971Z,2.65
2022-08-31T10:26:11.482Z,3.38
2022-08-31T10:28:48.817Z,3.67
2022-08-31T10:31:21.354Z,3.60
2022-08-31T10:34:14.684Z,5.03
2022-08-31T10:36:41.963Z,3.90
2022-08-31T10:39:48.026Z,2.53
2022-08-31T10:42:26.125Z,4.78
2022-08-31T10:45:18.570Z,4.40
2022-08-31T10:47:49.215Z,3.63
2022-08-31T10:50:26.947Z,4.43
2022-08-31T10:53:05.973Z,6.75
2022-08-31T10:55:39.415Z,5.05
2022-08-31T10:58:23.991Z,3.03
2022-08-31T11:01:00.440Z,5.72
2022-08-31T11:03:49.866Z,5.75
2022-08-31T11:06:43.917Z,5.05
2022-08-31T11:09:23.528Z,4.32
2022-08-31T11:11:58.129Z,3.50
2022-08-31T11:14:58.576Z,3.45
2022-08-31T11:17:40.113Z,3.78
2022-08-31T11:20:18.174Z,3.17
2022-08-31T11:22:50.944Z,4.30
2022-08-31T11:25:50.634Z,3.63
2022-08-31T11:28:29.059Z,4.32
2022-08-31T11:30:56.330Z,3.00
2022-08-31T11:33:28.386Z,2.45
2022-08-31T11:36:06.677Z,4.63
2022-08-31T11:38:42.386Z,4.22
2022-08-31T11:41:11.261Z,3.60
2022-08-31T11:43:44.469Z,3.40
2022-08-31T11:46:26.973Z,4.57
2022-08-31T11:48:54.046Z,2.35
2022-08-31T11:51:44.917Z,3.75
2022-08-31T11:54:22.806Z,2.42
2022-08-31T11:56:49.453Z,5.85
2022-08-31T11:59:29.041Z,3.88
2022-08-31T12:01:56.754Z,3.42
2022-08-31T12:04:46.528Z,5.85
2022-08-31T12:07:28.511Z,3.63
2022-08-31T12:10:13.316Z,4.22
2022-08-31T12:13:07.761Z,4.13
2022-08-31T12:15:34.327Z,2.80
2022-08-31T12:18:18.702Z,2.47
2022-08-31T12:21:26.345Z,7.00
2022-08-31T12:24:37.504Z,5.28
2022-08-31T12:27:16.990Z,2.53
2022-08-31T12:29:43.934Z,2.97
2022-08-31T12:32:22.956Z,3.80
2022-08-31T12:34:55.547Z,4.05
2022-08-31T12:37:26.422Z,2.05
2022-08-31T12:40:13.396Z,3.05
2022-08-31T12:43:03.011Z,4.00
2022-08-31T12:45:44.662Z,3.08
2022-08-31T12:48:29.614Z,2.78
2022-08-31T12:50:57.824Z,3.55
2022-08-31T12:53:37.113Z,2.40
2022-08-31T12:56:26.011Z,5.00
2022-08-31T12:59:01.713Z,5.25
2022-08-31T13:01:28.636Z,3.50
2022-08-31T13:04:00.966Z,5.68
2022-08-31T13:06:33.642Z,4.88
2022-08-31T13:09:01.378Z,4.28
2022-08-31T13:11:41.511Z,2.95
2022-08-31T13:14:08.538Z,4.70
2022-08-31T13:16:35.377Z,2.35
2022-08-31T13:19:05.441Z,3.10
2022-08-31T13:21:33.269Z,2.63
2022-08-31T13:24:08.225Z,3.47
2022-08-31T13:26:36.547Z,3.85
2022-08-31T13:29:07.646Z,3.33
2022-08-31T13:31:49.049Z,3.10
2022-08-31T13:34:15.842Z,3.50
2022-08-31T13:36:47.813Z,2.22
2022-08-31T13:39:29.918Z,1.92
2022-08-31T13:42:09.623Z,3.05
2022-08-31T13:44:40.651Z,3.40
2022-08-31T13:47:21.127Z,4.32
2022-08-31T13:49:49.130Z,2.95
2022-08-31T13:52:23.467Z,4.35
2022-08-31T13:55:06.521Z,4.75
2022-08-31T13:57:38.639Z,2.45
2022-08-31T14:00:42.138Z,3.33
2022-08-31T14:03:32.176Z,2.97
2022-08-31T14:06:24.081Z,2.67
2022-08-31T14:08:57.930Z,2.10
2022-08-31T14:11:29.053Z,2.55
2022-08-31T14:14:05.216Z,3.05
2022-08-31T14:16:36.338Z,2.65
2022-08-31T14:19:03.380Z,2.03
2022-08-31T14:21:35.166Z,2.25
2022-08-31T14:24:07.805Z,1.73
2022-08-31T14:26:41.764Z,4.53
2022-08-31T14:29:16.382Z,4.47
2022-08-31T14:31:49.243Z,3.90
2022-08-31T14:34:23.276Z,2.67
2022-08-31T14:37:04.144Z,2.17
2022-08-31T14:39:37.266Z,3.90
2022-08-31T14:42:11.531Z,4.07
2022-08-31T14:44:41.494Z,3.65
2022-08-31T14:47:09.724Z,3.03
2022-08-31T14:49:37.009Z,2.85
2022-08-31T14:52:06.320Z,6.75
2022-08-31T14:54:37.889Z,3.00
2022-08-31T14:57:12.761Z,1.65
2022-08-31T15:02:12.866Z,2.83
2022-08-31T15:04:44.652Z,2.70
2022-08-31T15:07:13.582Z,3.65
2022-08-31T15:09:42.361Z,2.28
2022-08-31T15:12:14.605Z,2.85
2022-08-31T15:14:43.188Z,2.50
2022-08-31T15:17:16.655Z,2.50
2022-08-31T15:19:46.165Z,3.03
2022-08-31T15:22:12.893Z,4.35
2022-08-31T15:24:44.999Z,1.88
2022-08-31T15:27:15.160Z,3.08
2022-08-31T15:29:47.369Z,4.15
2022-08-31T15:32:17.622Z,1.50
2022-08-31T15:34:58.034Z,2.22
2022-08-31T15:37:31.588Z,1.95
2022-08-31T15:40:00.391Z,2.17
2022-08-31T15:42:27.138Z,2.88
2022-08-31T15:44:57.025Z,2.33
2022-08-31T15:47:51.502Z,2.70
2022-08-31T15:50:20.271Z,3.03
2022-08-31T15:52:51.671Z,3.35
2022-08-31T15:55:23.532Z,2.90
2022-08-31T15:57:54.097Z,2.17
2022-08-31T16:00:23.595Z,2.40
2022-08-31T16:02:57.196Z,2.67
2022-08-31T16:05:35.752Z,2.75
2022-08-31T16:08:03.196Z,2.13
2022-08-31T16:10:30.834Z,2.35
2022-08-31T16:12:57.434Z,1.90
2022-08-31T16:15:25.085Z,1.30
2022-08-31T16:17:54.070Z,2.75
2022-08-31T16:20:20.644Z,1.77
2022-08-31T16:22:48.307Z,2.60
2022-08-31T16:25:16.299Z,4.88
2022-08-31T16:27:43.418Z,2.90
2022-08-31T16:30:11.947Z,3.95
2022-08-31T16:32:38.726Z,6.20
2022-08-31T16:35:06.341Z,4.55
2022-08-31T16:37:33.421Z,3.72
2022-08-31T16:40:00.124Z,3.80
2022-08-31T16:42:26.896Z,3.40
2022-08-31T16:44:53.520Z,4.68
2022-08-31T16:47:20.263Z,4.10
2022-08-31T16:49:47.477Z,5.07
2022-08-31T16:52:24.242Z,3.85
2022-08-31T16:54:52.103Z,2.83
2022-08-31T16:57:23.515Z,4.07
2022-08-31T16:59:51.365Z,4.10
2022-08-31T17:02:19.673Z,5.55
2022-08-31T17:04:54.531Z,2.90
2022-08-31T17:09:48.662Z,3.38
2022-08-31T17:12:17.794Z,3.50
2022-08-31T17:14:48.231Z,3.90
2022-08-31T17:17:17.582Z,6.45
2022-08-31T17:19:45.205Z,3.38
2022-08-31T17:22:21.499Z,4.57
2022-08-31T17:24:50.490Z,6.47
2022-08-31T17:27:19.476Z,4.30
2022-08-31T17:29:48.392Z,5.38
2022-08-31T17:32:16.928Z,3.97
2022-08-31T17:34:43.555Z,3.33
2022-08-31T17:37:15.388Z,4.78
2022-08-31T17:39:43.858Z,5.07
2022-08-31T17:42:11.087Z,6.65
2022-08-31T17:44:37.970Z,3.90
2022-08-31T17:47:05.375Z,4.22
2022-08-31T17:49:38.000Z,5.32
2022-08-31T17:52:08.560Z,6.60
2022-08-31T17:54:39.441Z,5.43
2022-08-31T17:57:10.319Z,6.25
2022-08-31T17:59:39.694Z,7.40
2022-08-31T18:02:11.645Z,3.85
2022-08-31T18:04:39.303Z,8.35
2022-08-31T18:07:06.738Z,5.70
2022-08-31T18:09:35.767Z,5.15
2022-08-31T18:12:02.926Z,6.93
2022-08-31T18:14:31.403Z,7.25
2022-08-31T18:17:00.493Z,7.65
2022-08-31T18:19:28.285Z,5.40
2022-08-31T18:21:58.392Z,17.20
2022-08-31T18:24:25.464Z,5.78
2022-08-31T18:26:52.562Z,7.43
2022-08-31T18:29:24.374Z,5.72
2022-08-31T18:31:53.895Z,4.70
2022-08-31T18:34:23.724Z,6.65
2022-08-31T18:36:53.666Z,3.88
2022-08-31T18:39:47.572Z,5.10
2022-08-31T18:42:27.658Z,8.05
2022-08-31T18:45:12.890Z,7.05
2022-08-31T18:47:39.689Z,9.52
2022-08-31T18:50:08.198Z,10.57
2022-08-31T18:52:39.214Z,10.32
2022-08-31T18:55:09.224Z,16.02
2022-08-31T18:57:46.349Z,8.23
2022-08-31T19:00:17.804Z,9.18
2022-08-31T19:02:45.092Z,8.93
2022-08-31T19:05:13.603Z,8.30
2022-08-31T19:07:41.341Z,12.18
2022-08-31T19:10:13.238Z,10.68
2022-08-31T19:12:42.482Z,10.07
2022-08-31T19:15:12.778Z,19.38
2022-08-31T19:17:40.179Z,10.60
2022-08-31T19:20:10.315Z,11.18
2022-08-31T19:22:37.574Z,13.13
2022-08-31T19:25:04.810Z,11.40
2022-08-31T19:27:31.550Z,10.07
2022-08-31T19:29:59.009Z,10.70
2022-08-31T19:32:28.631Z,8.63
2022-08-31T19:34:55.308Z,13.82
2022-08-31T19:37:21.989Z,11.75
2022-08-31T19:39:49.679Z,14.85
2022-08-31T19:42:16.460Z,10.27
2022-08-31T19:44:55.954Z,8.35
2022-08-31T19:47:34.892Z,11.68
2022-08-31T19:50:02.079Z,7.97
2022-08-31T19:52:28.673Z,7.82
2022-08-31T19:54:55.318Z,10.35
2022-08-31T19:57:22.630Z,9.93
2022-08-31T19:59:49.861Z,9.60
2022-08-31T20:02:17.270Z,8.60
2022-08-31T20:04:47.093Z,10.50
2022-08-31T20:07:14.389Z,11.55
2022-08-31T20:09:41.066Z,9.40
2022-08-31T20:12:08.522Z,10.10
2022-08-31T20:14:35.931Z,11.57
2022-08-31T20:17:02.889Z,14.02
2022-08-31T20:19:36.137Z,11.98
2022-08-31T20:22:09.450Z,16.75
2022-08-31T20:24:39.348Z,9.25
2022-08-31T20:27:13.786Z,11.30
2022-08-31T20:29:40.739Z,11.65
2022-08-31T20:32:08.176Z,11.27
2022-08-31T20:34:35.011Z,9.45
2022-08-31T20:37:02.917Z,12.90
2022-08-31T20:39:30.929Z,10.10
2022-08-31T20:41:59.070Z,10.50
2022-08-31T20:44:27.594Z,11.27
2022-08-31T20:47:22.229Z,12.50
2022-08-31T20:49:57.474Z,9.70
2022-08-31T20:52:27.111Z,9.82
2022-08-31T20:55:02.008Z,10.82
2022-08-31T20:57:32.439Z,9.65
2022-08-31T21:00:02.451Z,10.40
2022-08-31T21:02:31.773Z,12.55
2022-08-31T21:05:10.404Z,11.23
2022-08-31T21:07:45.670Z,9.50
2022-08-31T21:10:12.310Z,10.50
2022-08-31T21:12:39.104Z,12.43
2022-08-31T21:15:10.027Z,9.07
2022-08-31T21:17:36.711Z,12.93
2022-08-31T21:20:05.408Z,12.50
2022-08-31T21:22:35.035Z,9.93
2022-08-31T21:25:03.590Z,11.50
2022-08-31T21:27:30.399Z,9.38
2022-08-31T21:29:57.142Z,12.63
2022-08-31T21:32:23.729Z,11.10
2022-08-31T21:34:50.361Z,8.95
2022-08-31T21:37:17.126Z,13.98
2022-08-31T21:39:43.830Z,7.78
2022-08-31T21:42:10.501Z,10.52
2022-08-31T21:44:37.511Z,10.23
2022-08-31T21:47:05.565Z,6.13
2022-08-31T21:49:34.268Z,6.00
2022-08-31T21:52:00.922Z,7.70
2022-08-31T21:54:28.784Z,8.50
2022-08-31T21:57:00.887Z,5.72
2022-08-31T21:59:30.052Z,4.93
2022-08-31T22:02:00.393Z,4.00
2022-08-31T22:04:31.925Z,8.52
2022-08-31T22:06:59.562Z,5.25
2022-08-31T22:09:28.272Z,4.78
2022-08-31T22:11:57.220Z,5.22
2022-08-31T22:14:31.929Z,3.45
2022-08-31T22:17:02.885Z,2.88
2022-08-31T22:19:30.033Z,5.80
2022-08-31T22:22:00.840Z,2.78
2022-08-31T22:24:32.054Z,2.95
2022-08-31T22:27:01.672Z,2.58
2022-08-31T22:29:31.536Z,3.28
2022-08-31T22:32:01.327Z,12.10
2022-08-31T22:34:28.321Z,3.38
2022-08-31T22:36:56.370Z,3.15
2022-08-31T22:39:25.959Z,2.92
2022-08-31T22:41:53.157Z,3.30
2022-08-31T22:44:22.071Z,3.70
2022-08-31T22:46:48.815Z,5.05
2022-08-31T22:49:15.599Z,3.45
2022-08-31T22:51:43.317Z,2.13
2022-08-31T22:54:10.819Z,1.95
2022-08-31T22:56:38.976Z,5.75
2022-08-31T22:59:12.998Z,2.13
2022-08-31T23:01:43.177Z,2.72
2022-08-31T23:04:12.465Z,2.92
2022-08-31T23:06:39.423Z,1.80
2022-08-31T23:09:08.955Z,2.13
2022-08-31T23:11:36.384Z,2.63
2022-08-31T23:14:07.403Z,2.88
2022-08-31T23:16:37.616Z,2.15
2022-08-31T23:19:12.202Z,2.75
2022-08-31T23:21:46.686Z,2.35
2022-08-31T23:24:40.699Z,3.83
2022-08-31T23:27:10.271Z,4.50
2022-08-31T23:29:45.724Z,2.08
2022-08-31T23:32:13.236Z,3.78
2022-08-31T23:34:41.697Z,4.10
2022-08-31T23:37:10.475Z,3.55
2022-08-31T23:39:40.223Z,2.40
2022-08-31T23:42:10.326Z,2.75
2022-08-31T23:44:42.313Z,5.57
2022-08-31T23:47:18.315Z,4.10
2022-08-31T23:49:45.980Z,2.63
2022-08-31T23:52:18.687Z,3.83
2022-08-31T23:54:46.394Z,4.70
2022-08-31T23:57:31.538Z,2.50
